createdAt,value
2017-09-02T00:00:46.734Z,14.82
2017-09-02T00:01:46.796Z,14.86
2017-09-02T00:03:39.806Z,14.84
2017-09-02T00:04:39.850Z,14.82
2017-09-02T00:06:32.846Z,14.86
2017-09-02T00:07:32.907Z,14.84
2017-09-02T00:09:25.925Z,14.84
2017-09-02T00:10:25.968Z,14.81
2017-09-02T00:12:18.973Z,14.82
2017-09-02T00:13:19.027Z,14.84
2017-09-02T00:15:12.036Z,14.85
2017-09-02T00:16:12.079Z,14.86
2017-09-02T00:18:05.097Z,14.84
2017-09-02T00:19:05.140Z,14.85
2017-09-02T00:20:58.139Z,14.85
2017-09-02T00:21:58.194Z,14.88
2017-09-02T00:23:51.207Z,14.84
2017-09-02T00:24:51.254Z,14.82
2017-09-02T00:26:44.244Z,14.78
2017-09-02T00:27:44.306Z,14.82
2017-09-02T00:29:37.319Z,14.73
2017-09-02T00:30:37.363Z,14.70
2017-09-02T00:32:30.355Z,14.70
2017-09-02T00:33:30.417Z,14.78
2017-09-02T00:35:23.427Z,14.73
2017-09-02T00:36:23.470Z,14.70
2017-09-02T00:38:16.482Z,14.73
2017-09-02T00:39:16.525Z,14.65
2017-09-02T00:41:09.519Z,14.78
2017-09-02T00:42:09.584Z,14.78
2017-09-02T00:44:02.595Z,14.65
2017-09-02T00:45:02.637Z,14.63
2017-09-02T00:46:55.630Z,14.59
2017-09-02T00:47:55.690Z,14.58
2017-09-02T00:49:48.704Z,14.63
2017-09-02T00:50:48.743Z,14.68
2017-09-02T00:52:42.282Z,14.60
2017-09-02T00:53:42.304Z,14.55
2017-09-02T00:55:35.296Z,14.51
2017-09-02T00:56:35.356Z,14.54
2017-09-02T00:58:28.370Z,14.47
2017-09-02T00:59:28.411Z,14.43
2017-09-02T01:01:21.406Z,14.48
2017-09-02T01:02:21.467Z,14.41
2017-09-02T01:04:14.476Z,14.36
2017-09-02T01:05:14.525Z,14.33
2017-09-02T01:07:07.512Z,14.33
2017-09-02T01:08:07.575Z,14.44
2017-09-02T01:10:00.584Z,14.35
2017-09-02T01:11:00.628Z,14.37
2017-09-02T01:12:53.638Z,14.40
2017-09-02T01:13:53.679Z,14.37
2017-09-02T01:15:46.672Z,14.44
2017-09-02T01:16:46.738Z,14.54
2017-09-02T01:18:39.750Z,14.36
2017-09-02T01:19:39.787Z,14.33
2017-09-02T01:21:32.775Z,14.30
2017-09-02T01:22:32.839Z,14.33
2017-09-02T01:24:25.852Z,14.40
2017-09-02T01:25:25.891Z,14.32
2017-09-02T01:27:18.882Z,14.41
2017-09-02T01:28:18.943Z,14.40
2017-09-02T01:30:11.955Z,14.45
2017-09-02T01:31:11.998Z,14.37
2017-09-02T01:33:05.008Z,14.43
2017-09-02T01:34:05.052Z,14.33
2017-09-02T01:35:58.047Z,14.41
2017-09-02T01:36:58.111Z,14.43
2017-09-02T01:38:51.126Z,14.29
2017-09-02T01:39:51.173Z,14.33
2017-09-02T01:41:44.162Z,14.30
2017-09-02T01:42:44.226Z,14.28
2017-09-02T01:44:37.244Z,14.15
2017-09-02T01:45:37.286Z,14.25
2017-09-02T01:47:30.278Z,14.17
2017-09-02T01:48:30.341Z,14.12
2017-09-02T01:50:23.352Z,14.15
2017-09-02T01:51:23.401Z,14.05
2017-09-02T01:53:16.413Z,14.11
2017-09-02T01:54:16.451Z,14.12
2017-09-02T01:56:09.450Z,14.10
2017-09-02T01:57:09.513Z,14.15
2017-09-02T01:59:02.525Z,14.11
2017-09-02T02:00:02.568Z,14.18
2017-09-02T02:01:55.563Z,14.15
2017-09-02T02:02:55.636Z,14.17
2017-09-02T02:04:48.637Z,14.20
2017-09-02T02:05:48.682Z,14.20
2017-09-02T02:07:41.674Z,14.14
2017-09-02T02:08:41.743Z,14.15
2017-09-02T02:10:34.751Z,14.14
2017-09-02T02:11:34.796Z,14.25
2017-09-02T02:13:27.805Z,14.17
2017-09-02T02:14:27.848Z,14.20
2017-09-02T02:16:20.836Z,14.22
2017-09-02T02:17:20.901Z,14.25
2017-09-02T02:19:13.912Z,14.17
2017-09-02T02:20:13.953Z,14.17
2017-09-02T02:22:06.944Z,14.20
2017-09-02T02:23:07.005Z,14.14
2017-09-02T02:25:00.023Z,14.15
2017-09-02T02:26:00.063Z,14.07
2017-09-02T02:27:53.053Z,14.14
2017-09-02T02:28:53.117Z,14.12
2017-09-02T02:30:46.134Z,14.12
2017-09-02T02:31:46.172Z,14.20
2017-09-02T02:33:39.178Z,14.18
2017-09-02T02:34:39.221Z,14.22
2017-09-02T02:36:32.215Z,14.28
2017-09-02T02:37:32.274Z,14.28
2017-09-02T02:39:25.284Z,14.25
2017-09-02T02:40:25.328Z,14.20
2017-09-02T02:42:18.328Z,14.10
2017-09-02T02:43:18.383Z,14.12
2017-09-02T02:45:11.392Z,14.11
2017-09-02T02:46:11.436Z,14.14
2017-09-02T02:48:04.428Z,14.12
2017-09-02T02:49:04.490Z,14.15
2017-09-02T02:50:57.501Z,14.14
2017-09-02T02:51:57.544Z,14.12
2017-09-02T02:53:50.558Z,14.12
2017-09-02T02:54:50.599Z,14.15
2017-09-02T02:56:43.589Z,14.07
2017-09-02T02:57:43.657Z,14.05
2017-09-02T02:59:36.662Z,14.08
2017-09-02T03:00:36.708Z,14.08
2017-09-02T03:02:29.696Z,14.04
2017-09-02T03:03:29.760Z,13.95
2017-09-02T03:05:22.770Z,13.96
2017-09-02T03:06:22.814Z,13.89
2017-09-02T03:08:15.822Z,13.99
2017-09-02T03:09:15.867Z,14.05
2017-09-02T03:11:08.875Z,13.93
2017-09-02T03:12:08.919Z,14.08
2017-09-02T03:14:01.930Z,14.00
2017-09-02T03:15:01.972Z,14.00
2017-09-02T03:16:54.960Z,13.97
2017-09-02T03:17:55.022Z,13.90
2017-09-02T03:19:48.038Z,13.87
2017-09-02T03:20:48.077Z,13.81
2017-09-02T03:22:41.067Z,13.78
2017-09-02T03:23:41.126Z,13.81
2017-09-02T03:25:34.140Z,13.75
2017-09-02T03:26:34.183Z,13.71
2017-09-02T03:28:27.194Z,13.71
2017-09-02T03:29:27.240Z,13.59
2017-09-02T03:31:20.231Z,13.65
2017-09-02T03:32:20.293Z,13.56
2017-09-02T03:34:13.333Z,13.54
2017-09-02T03:35:13.355Z,13.57
2017-09-02T03:37:06.346Z,13.44
2017-09-02T03:38:06.412Z,13.46
2017-09-02T03:39:59.425Z,13.49
2017-09-02T03:40:59.470Z,13.41
2017-09-02T03:42:52.462Z,13.39
2017-09-02T03:43:52.524Z,13.33
2017-09-02T03:45:45.541Z,13.28
2017-09-02T03:46:45.584Z,13.22
2017-09-02T03:48:38.603Z,13.22
2017-09-02T03:49:38.643Z,13.16
2017-09-02T03:51:31.635Z,13.16
2017-09-02T03:52:31.708Z,13.16
2017-09-02T03:54:24.709Z,13.16
2017-09-02T03:55:24.752Z,13.04
2017-09-02T03:57:17.748Z,13.18
2017-09-02T03:58:17.810Z,13.16
2017-09-02T04:00:10.835Z,13.09
2017-09-02T04:01:10.877Z,12.97
2017-09-02T04:03:03.865Z,13.00
2017-09-02T04:04:03.930Z,13.03
2017-09-02T04:05:56.936Z,13.00
2017-09-02T04:06:56.979Z,13.00
2017-09-02T04:08:49.989Z,12.98
2017-09-02T04:09:50.032Z,13.03
2017-09-02T04:11:43.022Z,12.95
2017-09-02T04:12:43.091Z,13.00
2017-09-02T04:14:36.095Z,12.98
2017-09-02T04:15:36.139Z,12.91
2017-09-02T04:17:29.131Z,12.93
2017-09-02T04:18:29.196Z,12.95
2017-09-02T04:20:22.209Z,12.90
2017-09-02T04:21:22.252Z,12.94
2017-09-02T04:23:15.243Z,12.97
2017-09-02T04:24:15.303Z,13.05
2017-09-02T04:26:08.315Z,13.04
2017-09-02T04:27:08.357Z,13.00
2017-09-02T04:29:01.364Z,13.01
2017-09-02T04:30:01.406Z,13.00
2017-09-02T04:31:54.398Z,13.00
2017-09-02T04:32:54.458Z,13.00
2017-09-02T04:34:47.466Z,12.87
2017-09-02T04:35:47.508Z,12.85
2017-09-02T04:37:40.496Z,12.87
2017-09-02T04:38:40.560Z,12.91
2017-09-02T04:40:33.569Z,12.90
2017-09-02T04:41:33.609Z,12.86
2017-09-02T04:43:26.599Z,12.72
2017-09-02T04:44:26.664Z,12.73
2017-09-02T04:46:19.671Z,12.75
2017-09-02T04:47:19.713Z,12.65
2017-09-02T04:49:12.723Z,12.67
2017-09-02T04:50:12.764Z,12.64
2017-09-02T04:52:06.264Z,12.70
2017-09-02T04:53:06.323Z,12.76
2017-09-02T04:54:59.330Z,12.67
2017-09-02T04:55:59.372Z,12.73
2017-09-02T04:57:52.364Z,12.65
2017-09-02T04:58:52.426Z,12.76
2017-09-02T05:00:45.440Z,12.72
2017-09-02T05:01:45.483Z,12.76
2017-09-02T05:03:38.478Z,12.72
2017-09-02T05:04:38.541Z,12.70
2017-09-02T05:06:31.551Z,12.75
2017-09-02T05:07:31.591Z,12.64
2017-09-02T05:09:24.608Z,12.73
2017-09-02T05:10:24.656Z,12.72
2017-09-02T05:12:17.648Z,12.85
2017-09-02T05:13:17.711Z,12.85
2017-09-02T05:15:10.727Z,12.85
2017-09-02T05:16:10.771Z,12.80
2017-09-02T05:18:03.763Z,12.79
2017-09-02T05:19:03.826Z,12.82
2017-09-02T05:20:56.842Z,12.82
2017-09-02T05:21:56.886Z,12.87
2017-09-02T05:23:49.876Z,12.87
2017-09-02T05:24:49.940Z,12.90
2017-09-02T05:26:42.954Z,12.85
2017-09-02T05:27:42.998Z,12.90
2017-09-02T05:29:36.013Z,12.80
2017-09-02T05:30:36.056Z,12.87
2017-09-02T05:32:29.045Z,12.94
2017-09-02T05:33:29.108Z,12.85
2017-09-02T05:35:22.120Z,12.93
2017-09-02T05:36:22.167Z,12.97
2017-09-02T05:38:15.163Z,12.97
2017-09-02T05:39:15.226Z,12.97
2017-09-02T05:41:08.235Z,12.95
2017-09-02T05:42:08.279Z,13.00
2017-09-02T05:44:01.275Z,13.20
2017-09-02T05:45:01.333Z,13.05
2017-09-02T05:46:54.343Z,13.15
2017-09-02T05:47:54.384Z,13.13
2017-09-02T05:49:47.394Z,13.27
2017-09-02T05:50:47.463Z,13.25
2017-09-02T05:52:40.959Z,13.41
2017-09-02T05:53:40.995Z,13.39
2017-09-02T05:55:34.033Z,13.56
2017-09-02T05:56:34.047Z,13.59
2017-09-02T05:58:27.037Z,13.63
2017-09-02T05:59:27.099Z,13.71
2017-09-02T06:01:20.110Z,13.70
2017-09-02T06:02:20.154Z,13.68
2017-09-02T06:04:13.175Z,13.78
2017-09-02T06:05:13.219Z,13.78
2017-09-02T06:07:06.198Z,13.86
2017-09-02T06:08:06.260Z,13.99
2017-09-02T06:09:59.269Z,14.11
2017-09-02T06:10:59.313Z,14.04
2017-09-02T06:12:52.305Z,14.07
2017-09-02T06:13:52.381Z,14.14
2017-09-02T06:15:45.377Z,14.18
2017-09-02T06:16:45.420Z,14.22
2017-09-02T06:18:38.410Z,14.44
2017-09-02T06:19:38.474Z,14.55
2017-09-02T06:21:31.484Z,14.69
2017-09-02T06:22:31.527Z,14.85
2017-09-02T06:24:24.536Z,14.97
2017-09-02T06:25:24.580Z,15.06
2017-09-02T06:27:17.570Z,15.15
2017-09-02T06:28:17.636Z,15.40
2017-09-02T06:30:10.648Z,15.92
2017-09-02T06:31:10.691Z,16.28
2017-09-02T06:33:03.683Z,17.06
2017-09-02T06:34:03.747Z,17.52
2017-09-02T06:35:56.761Z,18.44
2017-09-02T06:36:56.801Z,18.93
2017-09-02T06:38:49.794Z,20.03
2017-09-02T06:39:49.856Z,20.67
2017-09-02T06:41:42.879Z,21.30
2017-09-02T06:42:42.914Z,21.60
2017-09-02T06:44:35.929Z,22.25
2017-09-02T06:45:35.976Z,22.50
2017-09-02T06:47:28.970Z,22.96
2017-09-02T06:48:29.037Z,22.88
2017-09-02T06:50:22.054Z,23.05
2017-09-02T06:51:22.129Z,23.09
2017-09-02T06:53:15.100Z,23.78
2017-09-02T06:54:15.175Z,24.05
2017-09-02T06:56:08.189Z,24.35
2017-09-02T06:57:08.236Z,24.63
2017-09-02T06:59:01.243Z,24.50
2017-09-02T07:00:01.309Z,24.65
2017-09-02T07:01:54.333Z,24.78
2017-09-02T07:02:54.386Z,24.91
2017-09-02T07:04:47.429Z,25.32
2017-09-02T07:05:47.456Z,25.38
2017-09-02T07:07:40.459Z,25.47
2017-09-02T07:08:40.529Z,25.53
2017-09-02T07:10:33.556Z,25.47
2017-09-02T07:11:33.606Z,25.77
2017-09-02T07:13:26.610Z,26.25
2017-09-02T07:14:26.680Z,26.47
2017-09-02T07:16:19.709Z,26.74
2017-09-02T07:17:19.762Z,26.59
2017-09-02T07:19:12.857Z,26.44
2017-09-02T07:20:12.852Z,26.60
2017-09-02T07:22:05.905Z,26.95
2017-09-02T07:23:05.917Z,27.27
2017-09-02T07:24:59.088Z,27.67
2017-09-02T07:25:59.005Z,27.68
2017-09-02T07:27:52.024Z,27.71
2017-09-02T07:28:52.133Z,27.96
2017-09-02T07:30:45.106Z,28.33
2017-09-02T07:31:45.157Z,28.69
2017-09-02T07:33:38.169Z,28.67
2017-09-02T07:34:38.245Z,28.70
2017-09-02T07:36:31.304Z,29.19
2017-09-02T07:37:31.324Z,29.49
2017-09-02T07:39:24.374Z,29.16
2017-09-02T07:40:24.413Z,27.77
2017-09-02T07:42:17.451Z,26.77
2017-09-02T07:43:17.526Z,27.39
2017-09-02T07:45:10.528Z,28.17
2017-09-02T07:46:10.646Z,28.45
2017-09-02T07:48:03.640Z,28.79
2017-09-02T07:49:03.691Z,28.84
2017-09-02T07:50:56.723Z,29.02
2017-09-02T07:51:56.767Z,29.13
2017-09-02T07:53:49.826Z,29.54
2017-09-02T07:54:49.861Z,29.39
2017-09-02T07:56:42.900Z,29.17
2017-09-02T07:57:42.946Z,29.49
2017-09-02T07:59:35.974Z,29.49
2017-09-02T08:00:36.043Z,29.69
2017-09-02T08:02:29.088Z,29.78
2017-09-02T08:03:29.135Z,29.19
2017-09-02T08:05:22.171Z,29.26
2017-09-02T08:06:22.250Z,28.76
2017-09-02T08:08:15.267Z,29.14
2017-09-02T08:09:15.345Z,28.97
2017-09-02T08:11:08.376Z,29.19
2017-09-02T08:12:08.433Z,29.51
2017-09-02T08:14:01.465Z,29.39
2017-09-02T08:15:01.534Z,29.84
2017-09-02T08:16:54.571Z,30.50
2017-09-02T08:17:54.627Z,30.59
2017-09-02T08:19:47.650Z,30.39
2017-09-02T08:20:47.848Z,30.40
2017-09-02T08:22:40.756Z,29.94
2017-09-02T08:23:40.813Z,30.02
2017-09-02T08:25:33.851Z,29.93
2017-09-02T08:26:33.907Z,30.21
2017-09-02T08:28:26.936Z,29.97
2017-09-02T08:29:27.001Z,30.65
2017-09-02T08:31:20.049Z,28.51
2017-09-02T08:32:20.105Z,29.76
2017-09-02T08:34:13.131Z,29.90
2017-09-02T08:35:13.206Z,29.49
2017-09-02T08:37:06.253Z,29.20
2017-09-02T08:38:06.300Z,29.79
2017-09-02T08:39:59.321Z,30.06
2017-09-02T08:40:59.401Z,27.96
2017-09-02T08:42:52.444Z,25.96
2017-09-02T08:43:52.492Z,24.86
2017-09-02T08:45:45.546Z,26.38
2017-09-02T08:46:45.588Z,27.35
2017-09-02T08:48:38.626Z,28.44
2017-09-02T08:49:38.680Z,28.85
2017-09-02T08:51:31.725Z,29.47
2017-09-02T08:52:31.780Z,29.82
2017-09-02T08:54:24.811Z,30.19
2017-09-02T08:55:24.886Z,30.59
2017-09-02T08:57:17.933Z,31.06
2017-09-02T08:58:17.982Z,30.72
2017-09-02T09:00:11.019Z,30.43
2017-09-02T09:01:11.077Z,30.44
2017-09-02T09:03:04.128Z,30.24
2017-09-02T09:04:04.169Z,30.28
2017-09-02T09:05:57.188Z,29.56
2017-09-02T09:06:57.263Z,30.09
2017-09-02T09:08:50.333Z,29.39
2017-09-02T09:09:50.366Z,28.29
2017-09-02T09:11:43.437Z,26.02
2017-09-02T09:12:43.460Z,25.25
2017-09-02T09:14:37.051Z,24.51
2017-09-02T09:15:37.086Z,24.03
2017-09-02T09:17:30.103Z,23.65
2017-09-02T09:18:30.160Z,23.58
2017-09-02T09:20:23.196Z,23.17
2017-09-02T09:21:23.244Z,23.00
2017-09-02T09:23:16.278Z,22.99
2017-09-02T09:24:16.331Z,22.76
2017-09-02T09:26:09.345Z,22.54
2017-09-02T09:27:09.427Z,22.47
2017-09-02T09:29:02.447Z,22.33
2017-09-02T09:30:02.499Z,22.29
2017-09-02T09:31:55.534Z,22.20
2017-09-02T09:32:55.585Z,22.20
2017-09-02T09:34:48.595Z,22.07
2017-09-02T09:35:48.667Z,21.77
2017-09-02T09:37:41.752Z,22.08
2017-09-02T09:38:41.753Z,22.18
2017-09-02T09:40:34.750Z,22.66
2017-09-02T09:41:34.836Z,22.76
2017-09-02T09:43:27.845Z,22.35
2017-09-02T09:44:27.895Z,22.11
2017-09-02T09:46:20.900Z,22.15
2017-09-02T09:47:20.969Z,22.17
2017-09-02T09:49:13.997Z,22.28
2017-09-02T09:50:14.048Z,22.53
2017-09-02T09:52:07.074Z,22.57
2017-09-02T09:53:07.124Z,22.57
2017-09-02T09:55:00.127Z,22.10
2017-09-02T09:56:00.197Z,21.88
2017-09-02T09:57:53.223Z,21.36
2017-09-02T09:58:53.272Z,21.33
2017-09-02T10:00:46.285Z,21.40
2017-09-02T10:01:46.356Z,21.25
2017-09-02T10:03:39.379Z,21.02
2017-09-02T10:04:39.429Z,20.92
2017-09-02T10:06:32.459Z,21.21
2017-09-02T10:07:32.504Z,21.27
2017-09-02T10:09:25.528Z,21.27
2017-09-02T10:10:25.576Z,21.25
2017-09-02T10:12:18.608Z,21.46
2017-09-02T10:13:18.650Z,21.54
2017-09-02T10:15:12.162Z,21.50
2017-09-02T10:16:12.229Z,21.54
2017-09-02T10:18:05.250Z,21.83
2017-09-02T10:19:05.310Z,22.02
2017-09-02T10:20:58.302Z,21.91
2017-09-02T10:21:58.370Z,21.79
2017-09-02T10:23:51.394Z,21.51
2017-09-02T10:24:51.446Z,21.48
2017-09-02T10:26:44.467Z,21.32
2017-09-02T10:27:44.516Z,21.22
2017-09-02T10:29:37.519Z,21.11
2017-09-02T10:30:37.595Z,21.29
2017-09-02T10:32:30.609Z,21.02
2017-09-02T10:33:30.658Z,21.03
2017-09-02T10:35:23.660Z,21.15
2017-09-02T10:36:23.729Z,21.33
2017-09-02T10:38:16.751Z,21.29
2017-09-02T10:39:16.800Z,21.32
2017-09-02T10:41:09.808Z,21.30
2017-09-02T10:42:09.878Z,21.21
2017-09-02T10:44:02.898Z,21.21
2017-09-02T10:45:02.946Z,21.27
2017-09-02T10:46:55.995Z,21.25
2017-09-02T10:47:56.050Z,21.20
2017-09-02T10:49:49.045Z,21.15
2017-09-02T10:50:49.113Z,21.06
2017-09-02T10:52:42.139Z,21.30
2017-09-02T10:53:42.185Z,21.48
2017-09-02T10:55:35.204Z,21.67
2017-09-02T10:56:35.260Z,21.58
2017-09-02T10:58:28.275Z,21.64
2017-09-02T10:59:28.324Z,21.66
2017-09-02T11:01:21.329Z,21.51
2017-09-02T11:02:21.504Z,21.42
2017-09-02T11:04:14.419Z,21.39
2017-09-02T11:05:14.466Z,21.00
2017-09-02T11:07:07.486Z,20.81
2017-09-02T11:08:07.535Z,20.62
2017-09-02T11:10:00.535Z,20.48
2017-09-02T11:11:00.604Z,20.44
2017-09-02T11:12:53.623Z,20.26
2017-09-02T11:13:53.672Z,20.22
2017-09-02T11:15:46.695Z,20.03
2017-09-02T11:16:46.737Z,20.07
2017-09-02T11:18:39.757Z,20.04
2017-09-02T11:19:39.804Z,20.06
2017-09-02T11:21:32.803Z,20.18
2017-09-02T11:22:32.871Z,20.11
2017-09-02T11:24:25.891Z,20.31
2017-09-02T11:25:25.938Z,20.50
2017-09-02T11:27:19.159Z,20.59
2017-09-02T11:28:19.032Z,20.59
2017-09-02T11:30:12.077Z,20.66
2017-09-02T11:31:12.098Z,20.85
2017-09-02T11:33:05.347Z,21.02
2017-09-02T11:34:05.153Z,21.21
2017-09-02T11:35:58.158Z,21.32
2017-09-02T11:36:58.215Z,21.48
2017-09-02T11:38:51.435Z,21.79
2017-09-02T11:39:51.281Z,21.92
2017-09-02T11:41:44.281Z,21.83
2017-09-02T11:42:44.367Z,21.73
2017-09-02T11:44:37.375Z,21.42
2017-09-02T11:45:37.419Z,21.45
2017-09-02T11:47:30.513Z,21.48
2017-09-02T11:48:30.489Z,21.29
2017-09-02T11:50:23.979Z,21.18
2017-09-02T11:51:23.769Z,21.12
2017-09-02T11:53:16.585Z,21.09
2017-09-02T11:54:16.903Z,21.07
2017-09-02T11:56:09.637Z,21.05
2017-09-02T11:57:09.703Z,21.15
2017-09-02T11:59:02.724Z,21.25
2017-09-02T12:00:02.773Z,21.42
2017-09-02T12:01:55.790Z,21.39
2017-09-02T12:02:55.861Z,21.32
2017-09-02T12:04:48.894Z,21.33
2017-09-02T12:05:48.944Z,21.22
2017-09-02T12:07:41.962Z,21.30
2017-09-02T12:08:42.011Z,21.22
2017-09-02T12:10:35.017Z,21.40
2017-09-02T12:11:35.086Z,21.36
2017-09-02T12:13:28.103Z,21.30
2017-09-02T12:14:28.153Z,21.22
2017-09-02T12:16:21.157Z,21.02
2017-09-02T12:17:21.226Z,20.87
2017-09-02T12:19:14.246Z,20.97
2017-09-02T12:20:14.292Z,20.93
2017-09-02T12:22:07.332Z,20.87
2017-09-02T12:23:07.360Z,20.82
2017-09-02T12:25:00.359Z,20.88
2017-09-02T12:26:00.425Z,20.96
2017-09-02T12:27:53.446Z,20.95
2017-09-02T12:28:53.499Z,20.95
2017-09-02T12:30:46.493Z,21.06
2017-09-02T12:31:46.561Z,21.05
2017-09-02T12:33:39.582Z,21.17
2017-09-02T12:34:39.629Z,21.32
2017-09-02T12:36:32.626Z,21.46
2017-09-02T12:37:32.704Z,21.40
2017-09-02T12:39:25.716Z,21.46
2017-09-02T12:40:25.764Z,21.50
2017-09-02T12:42:18.789Z,21.51
2017-09-02T12:43:18.835Z,21.51
2017-09-02T12:45:11.834Z,21.77
2017-09-02T12:46:11.904Z,21.89
2017-09-02T12:48:04.923Z,21.99
2017-09-02T12:49:04.975Z,21.82
2017-09-02T12:50:57.970Z,21.64
2017-09-02T12:51:58.040Z,21.42
2017-09-02T12:53:51.058Z,21.46
2017-09-02T12:54:51.104Z,21.40
2017-09-02T12:56:44.118Z,21.39
2017-09-02T12:57:44.186Z,21.46
2017-09-02T12:59:37.210Z,21.51
2017-09-02T13:00:37.261Z,21.40
2017-09-02T13:02:30.283Z,21.54
2017-09-02T13:03:30.333Z,21.55
2017-09-02T13:05:23.346Z,21.37
2017-09-02T13:06:23.405Z,21.58
2017-09-02T13:08:16.424Z,21.55
2017-09-02T13:09:16.470Z,21.51
2017-09-02T13:11:09.472Z,21.50
2017-09-02T13:12:09.539Z,21.64
2017-09-02T13:14:02.557Z,21.83
2017-09-02T13:15:02.608Z,21.76
2017-09-02T13:16:55.609Z,21.83
2017-09-02T13:17:55.675Z,21.89
2017-09-02T13:19:48.700Z,21.82
2017-09-02T13:20:48.750Z,21.85
2017-09-02T13:22:41.771Z,22.04
2017-09-02T13:23:41.818Z,22.10
2017-09-02T13:25:34.823Z,22.22
2017-09-02T13:26:34.890Z,22.15
2017-09-02T13:28:27.916Z,22.18
2017-09-02T13:29:27.965Z,22.26
2017-09-02T13:31:20.963Z,22.18
2017-09-02T13:32:21.030Z,22.14
2017-09-02T13:34:14.060Z,22.22
2017-09-02T13:35:14.099Z,22.10
2017-09-02T13:37:07.105Z,21.95
2017-09-02T13:38:07.174Z,21.95
2017-09-02T13:40:00.199Z,21.80
2017-09-02T13:41:00.262Z,21.77
2017-09-02T13:42:53.271Z,21.67
2017-09-02T13:43:53.319Z,21.64
2017-09-02T13:45:46.434Z,21.73
2017-09-02T13:46:46.428Z,21.82
2017-09-02T13:48:39.410Z,21.77
2017-09-02T13:49:39.456Z,21.88
2017-09-02T13:51:32.465Z,21.92
2017-09-02T13:52:32.525Z,22.04
2017-09-02T13:54:25.549Z,22.07
2017-09-02T13:55:25.593Z,21.98
2017-09-02T13:57:18.594Z,22.02
2017-09-02T13:58:18.664Z,22.28
2017-09-02T14:00:11.686Z,22.44
2017-09-02T14:01:11.746Z,22.45
2017-09-02T14:03:04.767Z,22.25
2017-09-02T14:04:04.811Z,22.15
2017-09-02T14:05:57.831Z,22.11
2017-09-02T14:06:57.892Z,22.14
2017-09-02T14:08:50.912Z,21.92
2017-09-02T14:09:50.959Z,21.99
2017-09-02T14:11:43.966Z,21.96
2017-09-02T14:12:44.042Z,21.89
2017-09-02T14:14:37.573Z,21.89
2017-09-02T14:15:37.612Z,21.82
2017-09-02T14:17:30.618Z,21.70
2017-09-02T14:18:30.691Z,21.54
2017-09-02T14:20:23.714Z,21.66
2017-09-02T14:21:23.755Z,21.62
2017-09-02T14:23:16.760Z,21.60
2017-09-02T14:24:16.827Z,21.61
2017-09-02T14:26:09.845Z,21.67
2017-09-02T14:27:09.891Z,21.62
2017-09-02T14:29:02.923Z,21.64
2017-09-02T14:30:03.172Z,21.55
2017-09-02T14:31:55.962Z,21.51
2017-09-02T14:32:56.039Z,21.40
2017-09-02T14:34:49.055Z,21.45
2017-09-02T14:35:49.098Z,21.39
2017-09-02T14:37:42.612Z,21.24
2017-09-02T14:38:42.695Z,21.20
2017-09-02T14:40:35.706Z,21.22
2017-09-02T14:41:35.752Z,21.11
2017-09-02T14:43:28.761Z,21.17
2017-09-02T14:44:28.829Z,21.17
2017-09-02T14:46:21.856Z,21.02
2017-09-02T14:47:21.897Z,20.99
2017-09-02T14:49:14.949Z,21.07
2017-09-02T14:50:14.985Z,21.21
2017-09-02T14:52:07.987Z,21.12
2017-09-02T14:53:08.055Z,21.12
2017-09-02T14:55:01.072Z,21.36
2017-09-02T14:56:01.123Z,21.32
2017-09-02T14:57:54.136Z,21.39
2017-09-02T14:58:54.190Z,21.35
2017-09-02T15:00:47.218Z,21.45
2017-09-02T15:01:47.253Z,21.42
2017-09-02T15:03:40.255Z,21.33
2017-09-02T15:04:40.320Z,21.36
2017-09-02T15:06:33.343Z,21.27
2017-09-02T15:07:33.391Z,21.29
2017-09-02T15:09:26.410Z,21.18
2017-09-02T15:10:26.457Z,21.18
2017-09-02T15:12:19.461Z,21.06
2017-09-02T15:13:19.639Z,20.99
2017-09-02T15:15:12.546Z,20.99
2017-09-02T15:16:12.591Z,20.96
2017-09-02T15:18:05.600Z,21.07
2017-09-02T15:19:05.662Z,20.92
2017-09-02T15:20:58.687Z,20.85
2017-09-02T15:21:58.737Z,20.74
2017-09-02T15:23:51.739Z,20.65
2017-09-02T15:24:51.806Z,20.60
2017-09-02T15:26:44.835Z,20.52
2017-09-02T15:27:44.881Z,20.66
2017-09-02T15:29:37.898Z,20.72
2017-09-02T15:30:37.952Z,20.74
2017-09-02T15:32:30.942Z,20.56
2017-09-02T15:33:31.011Z,20.55
2017-09-02T15:35:24.034Z,20.56
2017-09-02T15:36:24.081Z,20.56
2017-09-02T15:38:17.083Z,20.65
2017-09-02T15:39:17.147Z,20.59
2017-09-02T15:41:10.170Z,20.51
2017-09-02T15:42:10.217Z,20.43
2017-09-02T15:44:03.216Z,20.41
2017-09-02T15:45:03.284Z,20.34
2017-09-02T15:46:56.305Z,20.40
2017-09-02T15:47:56.363Z,20.40
2017-09-02T15:49:49.370Z,20.37
2017-09-02T15:50:49.416Z,20.39
2017-09-02T15:52:42.427Z,20.44
2017-09-02T15:53:42.480Z,20.52
2017-09-02T15:55:35.495Z,20.63
2017-09-02T15:56:35.542Z,20.74
2017-09-02T15:58:28.540Z,20.72
2017-09-02T15:59:28.624Z,20.87
2017-09-02T16:01:21.623Z,20.97
2017-09-02T16:02:21.689Z,20.99
2017-09-02T16:04:14.668Z,20.95
2017-09-02T16:05:14.734Z,20.78
2017-09-02T16:07:07.754Z,20.60
2017-09-02T16:08:07.800Z,20.43
2017-09-02T16:10:00.829Z,20.40
2017-09-02T16:11:00.870Z,20.39
2017-09-02T16:12:53.867Z,20.41
2017-09-02T16:13:53.950Z,20.24
2017-09-02T16:15:46.952Z,20.26
2017-09-02T16:16:46.999Z,20.26
2017-09-02T16:18:39.995Z,20.24
2017-09-02T16:19:40.062Z,20.16
2017-09-02T16:21:33.082Z,20.13
2017-09-02T16:22:33.129Z,20.13
2017-09-02T16:24:26.136Z,20.07
2017-09-02T16:25:26.212Z,20.04
2017-09-02T16:27:19.213Z,20.07
2017-09-02T16:28:19.260Z,20.03
2017-09-02T16:30:12.275Z,20.03
2017-09-02T16:31:12.322Z,20.02
2017-09-02T16:33:05.323Z,20.09
2017-09-02T16:34:05.397Z,20.06
2017-09-02T16:35:58.411Z,19.95
2017-09-02T16:36:58.454Z,19.94
2017-09-02T16:38:51.476Z,19.88
2017-09-02T16:39:51.521Z,19.82
2017-09-02T16:41:44.537Z,19.73
2017-09-02T16:42:44.583Z,19.77
2017-09-02T16:44:37.583Z,19.58
2017-09-02T16:45:37.649Z,19.59
2017-09-02T16:47:30.668Z,19.55
2017-09-02T16:48:30.714Z,19.56
2017-09-02T16:50:23.735Z,19.39
2017-09-02T16:51:23.782Z,19.41
2017-09-02T16:53:16.777Z,19.47
2017-09-02T16:54:16.844Z,19.39
2017-09-02T16:56:09.860Z,19.41
2017-09-02T16:57:09.908Z,19.37
2017-09-02T16:59:02.910Z,19.30
2017-09-02T17:00:02.974Z,19.30
2017-09-02T17:01:55.997Z,19.37
2017-09-02T17:02:56.038Z,19.33
2017-09-02T17:04:49.034Z,19.37
2017-09-02T17:05:49.105Z,19.39
2017-09-02T17:07:42.117Z,19.30
2017-09-02T17:08:42.162Z,19.31
2017-09-02T17:10:35.178Z,19.36
2017-09-02T17:11:35.226Z,19.31
2017-09-02T17:13:28.228Z,19.24
2017-09-02T17:14:28.287Z,19.24
2017-09-02T17:16:21.305Z,19.36
2017-09-02T17:17:21.352Z,19.27
2017-09-02T17:19:14.348Z,19.22
2017-09-02T17:20:14.414Z,19.22
2017-09-02T17:22:07.430Z,19.24
2017-09-02T17:23:07.475Z,19.22
2017-09-02T17:25:00.470Z,19.12
2017-09-02T17:26:00.538Z,19.15
2017-09-02T17:27:53.564Z,19.08
2017-09-02T17:28:53.602Z,19.02
2017-09-02T17:30:46.618Z,18.93
2017-09-02T17:31:46.662Z,18.89
2017-09-02T17:33:39.659Z,18.83
2017-09-02T17:34:39.726Z,18.86
2017-09-02T17:36:32.753Z,18.81
2017-09-02T17:37:32.791Z,18.84
2017-09-02T17:39:25.811Z,18.74
2017-09-02T17:40:25.859Z,18.63
2017-09-02T17:42:18.869Z,18.65
2017-09-02T17:43:18.915Z,18.60
2017-09-02T17:45:11.915Z,18.52
2017-09-02T17:46:11.982Z,18.47
2017-09-02T17:48:04.999Z,18.41
2017-09-02T17:49:05.042Z,18.41
2017-09-02T17:50:58.060Z,18.33
2017-09-02T17:51:58.112Z,18.33
2017-09-02T17:53:51.100Z,18.38
2017-09-02T17:54:51.182Z,18.18
2017-09-02T17:56:44.181Z,18.28
2017-09-02T17:57:44.231Z,18.18
2017-09-02T17:59:37.224Z,18.08
2017-09-02T18:00:37.288Z,18.04
2017-09-02T18:02:30.304Z,18.05
2017-09-02T18:03:30.351Z,17.94
2017-09-02T18:05:23.354Z,17.94
2017-09-02T18:06:23.421Z,17.90
2017-09-02T18:08:16.438Z,17.94
2017-09-02T18:09:16.481Z,17.95
2017-09-02T18:11:09.497Z,17.87
2017-09-02T18:12:09.542Z,17.86
2017-09-02T18:14:02.547Z,17.80
2017-09-02T18:15:02.604Z,17.83
2017-09-02T18:16:55.642Z,17.71
2017-09-02T18:17:55.685Z,17.72
2017-09-02T18:19:48.680Z,17.79
2017-09-02T18:20:48.748Z,17.63
2017-09-02T18:22:41.759Z,17.64
2017-09-02T18:23:41.819Z,17.56
2017-09-02T18:25:34.805Z,17.57
2017-09-02T18:26:34.866Z,17.48
2017-09-02T18:28:27.882Z,17.46
2017-09-02T18:29:27.929Z,17.36
2017-09-02T18:31:20.926Z,17.39
2017-09-02T18:32:20.990Z,17.39
2017-09-02T18:34:14.008Z,17.26